Time;durP1;ratioP1;P1;durP2;ratioP2;P2;SDS_P1;SDS_P2;PMS_P1;PMS_P2;Temp;Humidity;BMP_temperature;BMP_pressure;BME280_temperature;BME280_humidity;BME280_pressure;Samples;Min_cycle;Max_cycle;Signal;HPM_P1;HPM_P2
2021/06/14 00:01:18;;;;;;;;;4.75;4.75;;;;;21.00;42.18;100325.28;4972167;28;59387;-87
2021/06/14 00:03:44;;;;;;;;;5.00;5.00;;;;;20.88;42.32;100316.88;4956955;28;45678;-86
2021/06/14 00:06:09;;;;;;;;;5.00;4.00;;;;;20.86;42.41;100323.31;4967201;28;45503;-86
2021/06/14 00:08:40;;;;;;;;;5.00;5.00;;;;;20.80;42.55;100324.53;4964631;28;49282;-86
2021/06/14 00:11:07;;;;;;;;;11.50;6.00;;;;;20.78;43.10;100331.84;4967082;28;45908;-87
2021/06/14 00:13:32;;;;;;;;;5.00;5.00;;;;;20.63;43.47;100319.13;4956116;28;45319;-87
2021/06/14 00:15:58;;;;;;;;;9.00;5.50;;;;;20.71;43.87;100338.50;4969664;28;45465;-88
2021/06/14 00:18:23;;;;;;;;;5.25;5.00;;;;;20.61;43.94;100329.13;4972163;28;45423;-86
2021/06/14 00:20:54;;;;;;;;;5.00;5.00;;;;;20.50;43.94;100325.16;4969550;28;45491;-86
2021/06/14 00:23:22;;;;;;;;;6.00;5.00;;;;;20.55;44.62;100333.88;4967357;28;45620;-85
2021/06/14 00:25:48;;;;;;;;;6.50;4.00;;;;;20.47;44.89;100333.41;4972515;28;45788;-87
2021/06/14 00:28:13;;;;;;;;;4.25;4.00;;;;;20.34;44.67;100324.16;4967192;28;46146;-87
2021/06/14 00:30:42;;;;;;;;;5.00;5.00;;;;;20.39;45.39;100338.34;4971518;28;45663;-85
2021/06/14 00:33:08;;;;;;;;;8.00;6.00;;;;;20.35;45.61;100339.44;4969344;28;45638;-85
2021/06/14 00:35:34;;;;;;;;;6.25;5.50;;;;;20.22;45.29;100320.28;4969874;28;45306;-86
2021/06/14 00:37:59;;;;;;;;;4.75;4.75;;;;;20.22;45.32;100339.19;4969059;28;45553;-86
2021/06/14 00:40:26;;;;;;;;;6.50;4.25;;;;;20.08;45.67;100324.53;4971151;28;45468;-86
2021/06/14 00:42:51;;;;;;;;;8.50;6.75;;;;;20.10;45.66;100328.06;4971692;28;45354;-83
2021/06/14 00:45:20;;;;;;;;;5.00;5.00;;;;;20.08;46.07;100332.66;4969652;28;45479;-85
2021/06/14 00:47:46;;;;;;;;;5.75;5.00;;;;;19.99;46.58;100324.16;4962334;28;45701;-84
2021/06/14 00:50:14;;;;;;;;;5.50;5.50;;;;;19.94;46.90;100336.03;4969327;28;46410;-83
2021/06/14 00:52:39;;;;;;;;;9.50;5.50;;;;;19.79;47.12;100320.53;4974310;28;45791;-83
2021/06/14 00:55:07;;;;;;;;;6.00;6.00;;;;;19.77;47.54;100330.56;4962056;28;45359;-85
2021/06/14 00:57:33;;;;;;;;;5.00;5.00;;;;;19.60;47.10;100312.47;4966776;28;45559;-83
2021/06/14 01:00:03;;;;;;;;;5.75;5.50;;;;;19.65;47.20;100324.81;4970160;28;45373;-86
2021/06/14 01:02:29;;;;;;;;;5.50;5.50;;;;;19.65;47.21;100322.09;4965212;28;45521;-86
2021/06/14 01:04:54;;;;;;;;;6.00;6.00;;;;;19.48;47.56;100292.34;4971470;28;45459;-86
2021/06/14 01:07:20;;;;;;;;;7.00;6.00;;;;;19.64;47.75;100324.88;4966512;28;54827;-86
2021/06/14 01:09:45;;;;;;;;;9.00;6.00;;;;;19.58;48.22;100322.47;4970652;28;47094;-86
2021/06/14 01:12:13;;;;;;;;;5.00;5.00;;;;;19.47;48.25;100320.31;4972736;28;46899;-85
2021/06/14 01:15:17;;;;;;;;;6.25;6.00;;;;;19.46;48.96;100322.09;4968867;28;45485;-86
2021/06/14 01:17:54;;;;;;;;;6.00;6.00;;;;;19.38;49.23;100312.63;4926811;28;47189;-85
2021/06/14 01:20:24;;;;;;;;;5.00;5.00;;;;;19.39;48.73;100319.75;4917418;28;46048;-84
2021/06/14 01:22:59;;;;;;;;;6.00;6.00;;;;;19.35;49.06;100311.84;4914376;28;45652;-85
2021/06/14 01:25:29;;;;;;;;;7.00;7.00;;;;;19.33;49.23;100304.75;4909329;28;45410;-83
2021/06/14 01:27:57;;;;;;;;;9.00;7.00;;;;;19.27;49.21;100296.94;4931286;28;46193;-84
2021/06/14 01:30:26;;;;;;;;;6.00;6.00;;;;;19.20;49.64;100278.38;4932408;28;46093;-85
2021/06/14 01:32:52;;;;;;;;;8.00;6.75;;;;;19.24;49.92;100297.09;4906424;28;45540;-84
2021/06/14 01:35:23;;;;;;;;;8.25;7.00;;;;;19.19;50.30;100295.50;4906676;28;45445;-85
2021/06/14 01:37:51;;;;;;;;;9.00;6.75;;;;;19.17;50.41;100296.50;4906747;28;45776;-85
2021/06/14 01:40:18;;;;;;;;;6.50;6.50;;;;;19.00;50.30;100265.81;4910453;28;45976;-85
2021/06/14 01:42:44;;;;;;;;;6.75;6.00;;;;;19.05;50.69;100279.06;4925506;28;45500;-85
2021/06/14 01:45:10;;;;;;;;;6.75;6.00;;;;;18.93;51.25;100269.75;4924283;28;45541;-86
2021/06/14 01:47:36;;;;;;;;;8.50;6.00;;;;;18.98;51.00;100275.78;4930261;28;47464;-83
2021/06/14 01:50:03;;;;;;;;;8.50;7.00;;;;;18.99;50.75;100271.28;4960519;28;45481;-84
2021/06/14 01:52:28;;;;;;;;;7.25;7.25;;;;;18.87;51.23;100251.09;4964421;28;45515;-85
2021/06/14 01:54:55;;;;;;;;;6.25;6.00;;;;;18.94;51.12;100268.75;4962950;28;54069;-83
2021/06/14 01:57:21;;;;;;;;;5.00;5.00;;;;;18.93;51.14;100261.66;4964331;28;45554;-84
2021/06/14 01:59:49;;;;;;;;;6.25;5.75;;;;;18.89;51.42;100260.84;4961587;28;45610;-85
2021/06/14 02:02:15;;;;;;;;;11.00;6.75;;;;;18.82;51.70;100254.00;4950643;28;45379;-84
2021/06/14 02:04:45;;;;;;;;;6.00;6.00;;;;;18.80;52.06;100257.72;4964449;28;45472;-84
2021/06/14 02:07:11;;;;;;;;;5.75;5.75;;;;;18.81;52.34;100251.41;4951499;28;47742;-84
2021/06/14 02:09:37;;;;;;;;;6.25;6.25;;;;;18.74;51.86;100246.25;4973160;28;51359;-83
2021/06/14 02:12:04;;;;;;;;;7.25;7.00;;;;;18.73;52.22;100249.03;4967663;28;45735;-85
2021/06/14 02:14:32;;;;;;;;;6.50;6.50;;;;;18.55;52.16;100222.00;4960596;28;46121;-84
2021/06/14 02:16:58;;;;;;;;;8.25;4.50;;;;;18.62;52.42;100229.78;4959746;28;45544;-85
2021/06/14 02:19:23;;;;;;;;;6.75;5.00;;;;;18.61;52.11;100231.63;4970326;28;45436;-86
2021/06/14 02:21:49;;;;;;;;;6.00;6.00;;;;;18.65;51.94;100233.22;4971886;28;45521;-85
2021/06/14 02:24:15;;;;;;;;;6.50;4.00;;;;;18.59;52.11;100231.66;4965601;28;45445;-86
2021/06/14 02:26:42;;;;;;;;;5.50;4.50;;;;;18.64;52.12;100239.53;4966158;28;46874;-84
2021/06/14 02:29:08;;;;;;;;;8.25;5.25;;;;;18.60;51.91;100237.94;4964439;28;45437;-84
2021/06/14 02:31:34;;;;;;;;;6.50;5.00;;;;;18.57;52.00;100228.16;4968315;28;45527;-85
2021/06/14 02:34:03;;;;;;;;;6.50;4.50;;;;;18.55;52.15;100227.38;4972591;28;45580;-85
2021/06/14 02:36:29;;;;;;;;;4.00;4.00;;;;;18.57;52.13;100225.47;4961026;28;46390;-83
2021/06/14 02:38:55;;;;;;;;;5.75;5.00;;;;;18.52;51.86;100208.66;4961926;28;45449;-85
2021/06/14 02:41:21;;;;;;;;;5.00;5.00;;;;;18.58;52.17;100223.66;4955601;28;45528;-85
2021/06/14 02:43:47;;;;;;;;;6.25;5.25;;;;;18.61;52.29;100222.66;4970722;28;45623;-84
2021/06/14 02:46:13;;;;;;;;;8.25;6.00;;;;;18.61;52.28;100219.94;4969513;28;49454;-83
2021/06/14 02:48:44;;;;;;;;;5.00;5.00;;;;;18.48;52.26;100201.63;4973778;28;46468;-85
2021/06/14 02:51:10;;;;;;;;;6.25;5.00;;;;;18.52;52.70;100214.03;4965435;28;45541;-85
2021/06/14 02:53:36;;;;;;;;;5.50;5.00;;;;;18.51;52.02;100217.69;4968840;28;45465;-85
2021/06/14 02:56:10;;;;;;;;;6.75;5.50;;;;;18.49;52.08;100218.69;4965643;28;45622;-85
2021/06/14 02:58:43;;;;;;;;;5.75;5.50;;;;;18.46;52.67;100229.59;4960950;28;45705;-85
2021/06/14 03:01:09;;;;;;;;;5.00;5.00;;;;;18.42;52.37;100231.56;4970748;28;45541;-85
2021/06/14 03:03:36;;;;;;;;;5.25;4.75;;;;;18.33;52.61;100223.91;4966891;28;45477;-85
2021/06/14 03:06:03;;;;;;;;;5.00;4.25;;;;;18.32;52.86;100214.06;4962861;28;48508;-83
2021/06/14 03:08:30;;;;;;;;;11.75;5.75;;;;;18.30;52.73;100211.44;4956697;28;45437;-84
2021/06/14 03:10:56;;;;;;;;;8.00;5.50;;;;;18.28;53.03;100213.31;4970815;28;45400;-84
2021/06/14 03:13:22;;;;;;;;;6.00;4.50;;;;;18.39;53.06;100226.31;4962402;28;45511;-84
2021/06/14 03:15:47;;;;;;;;;6.00;4.75;;;;;18.40;52.87;100218.19;4971516;28;46622;-85
2021/06/14 03:18:16;;;;;;;;;5.00;5.00;;;;;18.38;53.63;100222.75;4973312;28;45774;-84
2021/06/14 03:20:42;;;;;;;;;5.25;5.25;;;;;18.37;53.24;100225.50;4965197;28;45382;-83
2021/06/14 03:23:08;;;;;;;;;7.00;6.00;;;;;18.27;53.37;100214.25;4968263;28;45535;-84
2021/06/14 03:25:34;;;;;;;;;6.25;6.25;;;;;18.28;53.56;100235.72;4973558;28;45370;-85
2021/06/14 03:28:03;;;;;;;;;5.75;5.75;;;;;18.20;53.77;100213.66;4953623;28;45811;-85
2021/06/14 03:30:30;;;;;;;;;6.25;4.75;;;;;18.24;53.94;100238.63;4971920;28;45605;-85
2021/06/14 03:32:56;;;;;;;;;5.75;4.50;;;;;18.17;54.21;100232.63;4973128;28;45477;-85
2021/06/14 03:35:21;;;;;;;;;8.00;6.00;;;;;18.19;54.65;100248.75;4970801;28;45643;-85
2021/06/14 03:37:47;;;;;;;;;5.25;5.25;;;;;18.15;54.39;100252.50;4969363;28;45541;-87
2021/06/14 03:40:14;;;;;;;;;4.75;4.75;;;;;18.11;54.27;100235.59;4967093;28;45505;-84
2021/06/14 03:42:39;;;;;;;;;7.75;5.75;;;;;18.04;54.48;100237.69;4971075;28;45303;-85
2021/06/14 03:45:06;;;;;;;;;6.75;5.00;;;;;18.02;54.73;100228.78;4968051;28;46555;-86
2021/06/14 03:47:32;;;;;;;;;3.75;3.75;;;;;17.89;54.78;100217.63;4968598;28;45481;-86
2021/06/14 03:49:57;;;;;;;;;6.00;6.00;;;;;17.94;54.73;100234.44;4970387;28;54867;-83
2021/06/14 03:52:22;;;;;;;;;5.50;5.50;;;;;17.94;54.75;100230.91;4966746;28;53732;-85
2021/06/14 03:54:48;;;;;;;;;5.50;5.00;;;;;17.96;55.01;100231.72;4975012;28;45333;-84
2021/06/14 03:57:13;;;;;;;;;6.50;6.50;;;;;17.87;54.93;100210.56;4969404;28;45599;-85
2021/06/14 03:59:39;;;;;;;;;8.50;6.00;;;;;17.92;55.33;100232.78;4973432;28;45483;-85
2021/06/14 04:02:04;;;;;;;;;10.25;7.00;;;;;17.84;55.57;100225.00;4969270;28;47918;-85
2021/06/14 04:07:14;;;;;;;;;8.00;7.00;;;;;17.82;55.40;100232.31;4967793;28;45493;-85
2021/06/14 04:09:39;;;;;;;;;6.75;6.00;;;;;17.83;55.63;100227.78;4971098;28;45444;-85
2021/06/14 04:12:06;;;;;;;;;5.25;5.25;;;;;17.81;55.84;100227.88;4965938;28;45398;-85
2021/06/14 04:14:31;;;;;;;;;7.50;6.25;;;;;17.82;55.61;100226.91;4959535;28;47515;-86
2021/06/14 04:16:57;;;;;;;;;6.00;4.75;;;;;17.84;56.19;100234.91;4971110;28;45477;-84
2021/06/14 04:19:22;;;;;;;;;6.50;6.50;;;;;17.83;56.17;100238.56;4972256;28;45589;-86
2021/06/14 04:21:47;;;;;;;;;5.25;5.25;;;;;17.81;55.70;100234.09;4970133;28;53830;-85
2021/06/14 04:24:13;;;;;;;;;6.75;6.75;;;;;17.81;56.16;100246.69;4970497;28;48230;-85
2021/06/14 04:26:38;;;;;;;;;7.00;5.50;;;;;17.80;56.23;100251.19;4962266;28;45517;-83
2021/06/14 04:29:04;;;;;;;;;6.75;6.75;;;;;17.80;56.49;100250.31;4966827;28;46694;-85
2021/06/14 04:31:31;;;;;;;;;5.25;5.25;;;;;17.77;56.06;100237.00;4968155;28;45465;-86
2021/06/14 04:33:57;;;;;;;;;7.50;6.00;;;;;17.74;56.34;100238.00;4972844;28;48176;-86
2021/06/14 04:36:22;;;;;;;;;8.00;7.00;;;;;17.81;56.44;100250.25;4950089;28;56526;-85
2021/06/14 04:38:48;;;;;;;;;7.00;6.75;;;;;17.80;56.41;100261.09;4967514;28;45871;-84
2021/06/14 04:41:14;;;;;;;;;6.25;6.25;;;;;17.74;56.86;100254.16;4968482;28;49252;-84
2021/06/14 04:43:39;;;;;;;;;5.00;5.00;;;;;17.80;56.90;100261.94;4969314;28;45593;-86
2021/06/14 04:46:05;;;;;;;;;6.25;4.50;;;;;17.79;56.58;100260.19;4968835;28;45478;-85
2021/06/14 04:48:31;;;;;;;;;5.50;4.50;;;;;17.76;56.69;100244.19;4968058;28;45694;-83
2021/06/14 04:50:56;;;;;;;;;8.00;6.25;;;;;17.77;57.17;100248.66;4971645;28;45550;-85
2021/06/14 04:53:21;;;;;;;;;6.00;6.00;;;;;17.80;57.31;100258.41;4967741;28;64203;-86
2021/06/14 04:55:47;;;;;;;;;6.75;6.00;;;;;17.87;57.17;100267.09;4964959;28;45580;-87
2021/06/14 04:58:12;;;;;;;;;9.25;6.50;;;;;17.93;57.19;100277.59;4969875;28;45538;-84
2021/06/14 05:00:38;;;;;;;;;6.50;4.75;;;;;17.96;57.30;100272.09;4968091;28;45477;-85
2021/06/14 05:03:04;;;;;;;;;8.00;8.00;;;;;17.97;57.13;100276.56;4973347;28;46130;-85
2021/06/14 05:05:29;;;;;;;;;5.25;5.25;;;;;18.00;57.55;100279.13;4968170;28;45627;-85
2021/06/14 05:07:55;;;;;;;;;6.75;6.75;;;;;18.02;56.96;100284.47;4965684;28;45834;-86
2021/06/14 05:10:21;;;;;;;;;9.25;6.00;;;;;18.00;57.14;100283.63;4968408;28;45381;-86
2021/06/14 05:12:46;;;;;;;;;8.75;7.00;;;;;17.99;57.10;100285.44;4949736;28;45989;-86
2021/06/14 05:15:12;;;;;;;;;6.75;6.75;;;;;18.04;57.34;100280.75;4984821;28;54650;-86
2021/06/14 05:17:38;;;;;;;;;6.50;6.50;;;;;18.10;57.17;100283.16;4970832;28;45479;-84
2021/06/14 05:20:04;;;;;;;;;6.25;6.25;;;;;18.11;57.15;100284.06;4970298;28;45646;-86
2021/06/14 05:22:30;;;;;;;;;8.00;5.00;;;;;18.14;56.98;100283.94;4971707;28;48873;-84
2021/06/14 05:24:55;;;;;;;;;6.75;5.25;;;;;18.24;56.56;100288.00;4968862;28;45351;-86
2021/06/14 05:27:21;;;;;;;;;7.75;7.00;;;;;18.29;57.07;100295.88;4967423;28;45480;-86
2021/06/14 05:29:46;;;;;;;;;8.50;6.50;;;;;18.33;57.38;100300.16;4969863;28;45515;-86
2021/06/14 05:32:11;;;;;;;;;9.75;7.50;;;;;18.18;57.13;100264.00;4972439;28;45459;-86
2021/06/14 05:34:37;;;;;;;;;6.00;5.00;;;;;18.34;57.44;100276.81;4967373;28;45658;-86
2021/06/14 05:37:02;;;;;;;;;5.75;5.75;;;;;18.36;57.10;100275.81;4955381;28;45361;-86
2021/06/14 05:39:28;;;;;;;;;7.25;6.25;;;;;18.39;57.25;100267.59;4972236;28;46073;-84
2021/06/14 05:41:53;;;;;;;;;5.50;5.00;;;;;18.52;56.95;100284.09;4970585;28;56316;-84
2021/06/14 05:44:19;;;;;;;;;6.00;6.00;;;;;18.45;56.85;100261.06;4966341;28;46696;-86
2021/06/14 05:46:45;;;;;;;;;10.50;6.75;;;;;18.59;57.39;100282.88;4969010;28;46031;-82
2021/06/14 05:49:11;;;;;;;;;7.75;5.75;;;;;18.59;57.01;100276.63;4969140;28;45675;-83
2021/06/14 05:51:38;;;;;;;;;6.25;6.00;;;;;18.62;56.81;100268.41;4968439;28;45380;-87
2021/06/14 05:54:04;;;;;;;;;7.00;6.25;;;;;18.77;57.09;100292.91;4957252;28;45861;-84
2021/06/14 05:56:29;;;;;;;;;7.50;6.00;;;;;18.81;57.34;100283.75;4973137;28;45479;-85
2021/06/14 05:58:54;;;;;;;;;11.25;6.00;;;;;18.76;56.82;100266.88;4914008;28;55490;-85
2021/06/14 06:01:20;;;;;;;;;7.00;6.25;;;;;18.87;57.19;100291.53;4959734;28;61045;-84
2021/06/14 06:03:48;;;;;;;;;6.00;6.00;;;;;18.95;57.39;100286.69;4974968;28;45478;-85
2021/06/14 06:06:13;;;;;;;;;7.25;7.00;;;;;19.02;57.53;100296.28;4970408;28;45734;-86
2021/06/14 06:08:39;;;;;;;;;11.00;7.25;;;;;19.08;57.10;100305.91;4972541;28;53247;-86
2021/06/14 06:11:05;;;;;;;;;8.00;6.00;;;;;19.04;57.49;100280.00;4972068;28;45432;-85
2021/06/14 06:13:30;;;;;;;;;7.25;7.25;;;;;19.18;57.27;100299.13;4969340;28;45447;-85
2021/06/14 06:15:58;;;;;;;;;7.00;5.75;;;;;19.24;57.45;100292.59;4970428;28;45323;-83
2021/06/14 06:18:24;;;;;;;;;9.00;7.00;;;;;19.31;56.95;100302.13;4967564;28;45425;-85
2021/06/14 06:20:50;;;;;;;;;5.00;4.50;;;;;19.37;57.14;100292.88;4955823;28;47500;-83
2021/06/14 06:23:15;;;;;;;;;7.00;7.00;;;;;19.39;56.59;100290.97;4972839;28;45330;-86
2021/06/14 06:25:40;;;;;;;;;7.25;6.00;;;;;19.41;57.15;100272.91;4967385;28;45826;-85
2021/06/14 06:28:06;;;;;;;;;8.00;6.25;;;;;19.44;56.65;100270.03;4969933;28;45758;-86
2021/06/14 06:30:36;;;;;;;;;6.00;5.00;;;;;19.52;56.80;100272.38;4973415;28;46613;-86
2021/06/14 06:33:02;;;;;;;;;9.25;6.00;;;;;19.70;56.90;100285.91;4967231;28;45996;-85
2021/06/14 06:35:27;;;;;;;;;6.25;6.25;;;;;19.69;56.69;100271.53;4954652;28;45387;-85
2021/06/14 06:37:52;;;;;;;;;7.75;7.25;;;;;19.81;55.70;100275.44;4967900;28;52909;-86
2021/06/14 06:40:18;;;;;;;;;6.50;5.25;;;;;19.87;56.07;100277.91;4959685;28;53543;-68
2021/06/14 06:42:43;;;;;;;;;7.00;6.50;;;;;20.05;54.56;100276.06;4966882;28;45451;-60
2021/06/14 06:45:11;;;;;;;;;9.00;6.00;;;;;20.31;54.14;100275.72;4967145;28;45569;-60
2021/06/14 06:47:36;;;;;;;;;6.00;5.00;;;;;20.45;53.36;100267.75;4959883;28;45460;-58
2021/06/14 06:50:03;;;;;;;;;9.00;7.00;;;;;20.70;52.29;100274.56;4970428;28;46205;-59
2021/06/14 06:52:29;;;;;;;;;10.75;6.25;;;;;20.83;53.23;100277.50;4964976;28;45906;-60
2021/06/14 06:54:54;;;;;;;;;8.00;6.00;;;;;20.97;52.76;100274.06;4965767;28;45449;-58
2021/06/14 06:57:20;;;;;;;;;7.50;7.50;;;;;21.05;52.03;100272.69;4968510;28;49592;-58
2021/06/14 06:59:46;;;;;;;;;7.75;6.00;;;;;21.09;51.82;100256.28;4964798;28;47194;-56
2021/06/14 07:02:11;;;;;;;;;7.25;6.25;;;;;21.26;52.19;100274.28;4985682;28;45433;-57
2021/06/14 07:04:37;;;;;;;;;7.50;5.25;;;;;21.35;51.13;100271.06;4962269;28;45557;-59
2021/06/14 07:07:04;;;;;;;;;7.25;6.25;;;;;21.45;51.81;100276.81;4963169;28;45421;-59
2021/06/14 07:09:29;;;;;;;;;6.25;6.00;;;;;21.56;52.71;100271.66;4963324;28;45460;-59
2021/06/14 07:11:56;;;;;;;;;6.75;5.75;;;;;21.66;52.92;100272.91;4966130;28;45406;-60
2021/06/14 07:14:22;;;;;;;;;7.00;5.75;;;;;21.75;51.82;100271.53;4969609;28;45596;-61
2021/06/14 07:16:48;;;;;;;;;7.50;6.25;;;;;21.87;52.08;100263.66;4964600;28;45409;-57
2021/06/14 07:19:13;;;;;;;;;5.75;5.00;;;;;21.96;53.31;100273.94;4968449;28;59156;-57
2021/06/14 07:21:38;;;;;;;;;7.75;6.75;;;;;22.13;52.29;100268.38;4965754;28;54399;-57
2021/06/14 07:24:04;;;;;;;;;5.25;5.25;;;;;22.25;51.27;100272.22;4968444;28;50719;-58
2021/06/14 07:26:30;;;;;;;;;9.75;6.25;;;;;22.37;50.50;100267.03;4965489;28;45504;-59
2021/06/14 07:28:55;;;;;;;;;8.00;7.50;;;;;22.46;50.47;100274.63;4970956;28;45475;-58
2021/06/14 07:31:21;;;;;;;;;7.00;6.75;;;;;22.49;49.93;100263.56;4950674;28;45588;-58
2021/06/14 07:33:48;;;;;;;;;3.00;3.00;;;;;22.55;49.31;100281.31;4963952;28;45551;-59
2021/06/14 07:36:13;;;;;;;;;5.50;5.50;;;;;22.56;49.55;100272.22;4960657;28;45691;-59
2021/06/14 07:38:39;;;;;;;;;7.50;7.00;;;;;22.59;49.51;100269.31;4961998;28;47113;-59
2021/06/14 07:41:05;;;;;;;;;8.00;6.50;;;;;22.63;49.96;100276.31;4966719;28;45485;-60
2021/06/14 07:43:31;;;;;;;;;7.50;7.00;;;;;22.64;49.50;100264.50;4967112;28;45517;-59
2021/06/14 07:45:57;;;;;;;;;7.50;6.25;;;;;22.75;49.36;100272.81;4967470;28;45452;-60
2021/06/14 07:48:22;;;;;;;;;8.00;6.75;;;;;22.83;48.83;100266.06;4959402;28;59122;-58
2021/06/14 07:50:48;;;;;;;;;10.25;9.00;;;;;22.90;49.08;100260.16;4962667;28;53476;-61
2021/06/14 07:53:14;;;;;;;;;52.50;36.00;;;;;22.99;49.54;100261.41;4962095;28;45500;-51
2021/06/14 07:55:39;;;;;;;;;10.25;9.25;;;;;23.08;48.89;100259.94;4963583;28;47649;-58
2021/06/14 07:58:06;;;;;;;;;9.50;8.00;;;;;23.09;48.97;100250.84;4966397;28;46033;-57
2021/06/14 08:00:31;;;;;;;;;10.00;9.00;;;;;23.21;48.49;100254.63;4974132;28;45777;-58
2021/06/14 08:02:57;;;;;;;;;10.50;7.50;;;;;23.24;47.63;100251.72;4971544;28;45546;-57
2021/06/14 08:05:22;;;;;;;;;10.50;8.00;;;;;23.24;48.04;100240.88;4966374;28;45507;-59
2021/06/14 08:07:48;;;;;;;;;6.75;5.25;;;;;23.31;47.69;100250.34;4974838;28;52705;-59
2021/06/14 08:10:16;;;;;;;;;7.25;6.00;;;;;23.36;47.49;100253.66;4975846;28;45490;-55
2021/06/14 08:12:45;;;;;;;;;5.25;5.25;;;;;23.43;47.69;100248.69;4970928;28;45423;-58
2021/06/14 08:15:13;;;;;;;;;11.25;7.00;;;;;23.44;47.66;100239.56;4973260;28;45578;-58
2021/06/14 08:17:38;;;;;;;;;7.50;7.00;;;;;23.54;47.16;100247.97;4973712;28;46348;-58
2021/06/14 08:25:08;;;;;;;;;7.75;5.25;;;;;23.83;46.54;100240.59;4974224;28;45413;-59
2021/06/14 08:27:39;;;;;;;;;6.00;5.25;;;;;23.89;46.40;100231.19;4973343;28;45724;-59
2021/06/14 08:30:11;;;;;;;;;6.00;6.00;;;;;24.01;45.86;100228.63;4972311;28;45661;-60
2021/06/14 08:32:37;;;;;;;;;7.00;7.00;;;;;24.08;45.34;100224.50;4966565;28;45808;-59
2021/06/14 08:35:04;;;;;;;;;8.00;6.00;;;;;24.21;45.21;100221.81;4973937;28;45491;-59
2021/06/14 08:37:30;;;;;;;;;9.00;7.00;;;;;24.30;44.58;100221.16;4972011;28;46317;-59
2021/06/14 08:39:55;;;;;;;;;7.25;6.50;;;;;24.33;43.51;100215.53;4974313;28;45321;-59
2021/06/14 08:42:21;;;;;;;;;6.00;6.00;;;;;24.37;44.31;100222.50;4973404;28;45450;-59
2021/06/14 08:44:47;;;;;;;;;6.25;5.50;;;;;24.41;43.90;100223.16;4969456;28;45503;-59
2021/06/14 08:47:13;;;;;;;;;6.00;6.00;;;;;24.47;43.43;100222.72;4966509;28;45524;-58
2021/06/14 08:49:39;;;;;;;;;8.00;8.00;;;;;24.51;43.40;100223.34;4971771;28;45765;-59
2021/06/14 08:52:07;;;;;;;;;9.75;7.00;;;;;24.52;43.17;100211.50;4968341;28;45843;-58
2021/06/14 08:54:32;;;;;;;;;9.50;7.00;;;;;24.63;41.68;100210.75;4967771;28;45621;-59
2021/06/14 08:56:58;;;;;;;;;7.00;5.00;;;;;24.68;41.38;100206.75;4972890;28;46533;-59
2021/06/14 08:59:23;;;;;;;;;8.25;6.75;;;;;24.78;42.27;100206.09;4973552;28;45642;-58
2021/06/14 09:01:49;;;;;;;;;5.50;5.50;;;;;24.94;41.28;100201.28;4968837;28;45796;-59
2021/06/14 09:04:14;;;;;;;;;6.50;6.00;;;;;25.01;41.03;100207.13;4967381;28;45499;-58
2021/06/14 09:06:39;;;;;;;;;6.50;5.75;;;;;25.06;39.63;100210.41;4966205;28;53519;-60
2021/06/14 09:09:07;;;;;;;;;7.25;5.75;;;;;25.08;39.95;100207.56;4972065;28;50821;-58
2021/06/14 09:11:35;;;;;;;;;6.25;6.25;;;;;25.07;40.39;100195.81;4967309;28;45635;-59
2021/06/14 09:14:01;;;;;;;;;8.00;7.50;;;;;25.05;39.79;100204.09;4965721;28;45929;-59
2021/06/14 09:16:34;;;;;;;;;9.00;8.00;;;;;25.06;39.63;100192.22;4963805;28;46442;-59
2021/06/14 09:18:59;;;;;;;;;7.00;5.75;;;;;25.05;39.53;100198.63;4970765;28;45626;-59
2021/06/14 09:21:28;;;;;;;;;6.50;6.50;;;;;25.02;39.09;100206.16;4970190;28;45586;-61
2021/06/14 09:24:05;;;;;;;;;8.00;6.00;;;;;25.03;39.24;100205.19;4970763;28;45373;-59
2021/06/14 09:26:44;;;;;;;;;6.75;6.75;;;;;25.01;38.52;100190.81;4985801;28;45521;-59
2021/06/14 09:29:12;;;;;;;;;8.75;7.25;;;;;25.05;38.72;100206.81;4971030;28;45509;-59
2021/06/14 09:31:40;;;;;;;;;7.50;6.50;;;;;25.10;38.62;100206.47;4969824;28;45368;-59
2021/06/14 09:34:05;;;;;;;;;5.75;5.75;;;;;25.16;38.25;100195.16;4971550;28;45600;-56
2021/06/14 09:36:31;;;;;;;;;13.25;6.00;;;;;25.22;39.03;100197.41;4961735;28;46067;-59
2021/06/14 09:39:15;;;;;;;;;10.00;7.00;;;;;25.31;38.12;100198.59;4965848;28;45511;-57
2021/06/14 09:41:43;;;;;;;;;7.50;6.00;;;;;25.35;37.65;100193.78;4967941;28;45525;-60
2021/06/14 09:44:10;;;;;;;;;9.75;7.00;;;;;25.41;37.35;100197.94;4966329;28;45575;-58
2021/06/14 09:46:36;;;;;;;;;7.75;5.75;;;;;25.44;37.26;100200.44;4961456;28;46487;-58
2021/06/14 09:49:04;;;;;;;;;8.75;5.75;;;;;25.46;37.59;100196.59;4966540;28;45535;-70
2021/06/14 09:51:31;;;;;;;;;6.25;6.25;;;;;25.52;38.57;100192.53;4961967;28;45472;-59
2021/06/14 09:53:57;;;;;;;;;7.75;6.00;;;;;25.61;36.58;100191.00;4963014;28;45971;-58
2021/06/14 09:56:37;;;;;;;;;7.25;7.25;;;;;25.61;35.91;100193.72;4963879;28;46277;-58
2021/06/14 09:59:04;;;;;;;;;7.50;7.00;;;;;25.63;36.67;100202.63;4964269;28;45831;-58
2021/06/14 10:01:34;;;;;;;;;7.75;7.75;;;;;25.69;35.38;100204.88;4969472;28;45506;-59
2021/06/14 10:04:05;;;;;;;;;5.00;5.00;;;;;25.74;35.59;100191.78;4968663;28;45682;-58
2021/06/14 10:06:34;;;;;;;;;8.25;7.25;;;;;25.80;34.39;100193.16;4958001;28;46403;-59
2021/06/14 10:09:00;;;;;;;;;7.50;6.75;;;;;25.76;35.22;100197.97;4968189;28;45591;-58
2021/06/14 10:11:32;;;;;;;;;7.25;6.50;;;;;25.79;34.97;100194.16;4969894;28;46018;-59
2021/06/14 10:14:11;;;;;;;;;6.75;6.25;;;;;25.88;34.51;100201.59;4969515;28;45535;-59
2021/06/14 10:16:38;;;;;;;;;8.50;7.00;;;;;25.96;34.42;100201.03;4968596;28;46123;-58
2021/06/14 10:19:07;;;;;;;;;5.75;5.25;;;;;26.03;34.27;100199.59;4970786;28;45955;-60
2021/06/14 10:21:41;;;;;;;;;5.75;5.75;;;;;26.09;34.24;100200.94;4965796;28;45562;-59
2021/06/14 10:24:10;;;;;;;;;6.50;4.50;;;;;26.12;34.50;100198.91;4968222;28;45484;-59
2021/06/14 10:26:38;;;;;;;;;4.50;4.50;;;;;26.19;34.66;100204.72;4968700;28;46072;-57
2021/06/14 10:29:06;;;;;;;;;8.25;7.00;;;;;26.34;34.46;100202.66;4967418;28;46018;-59
2021/06/14 10:31:32;;;;;;;;;7.50;6.00;;;;;26.51;33.70;100197.72;4968548;28;45686;-60
2021/06/14 10:33:57;;;;;;;;;7.00;7.00;;;;;26.53;33.29;100198.47;4969672;28;45578;-59
2021/06/14 10:36:25;;;;;;;;;7.00;7.00;;;;;26.50;32.96;100202.34;4968085;28;46455;-59
2021/06/14 10:38:52;;;;;;;;;10.00;6.75;;;;;26.49;33.56;100196.97;4969334;28;45554;-58
2021/06/14 10:41:19;;;;;;;;;7.00;7.00;;;;;26.51;33.43;100192.28;4969173;28;45542;-59
2021/06/14 10:43:45;;;;;;;;;8.00;8.00;;;;;26.51;32.48;100192.28;4969151;28;45368;-58
2021/06/14 10:46:15;;;;;;;;;8.25;8.25;;;;;26.61;32.92;100185.09;4964150;28;45559;-61
2021/06/14 10:48:41;;;;;;;;;7.25;7.00;;;;;26.66;32.21;100185.59;4965511;28;45468;-59
2021/06/14 10:51:16;;;;;;;;;8.00;8.00;;;;;26.71;32.45;100185.22;4967605;28;45934;-63
2021/06/14 10:53:42;;;;;;;;;8.75;5.75;;;;;26.72;32.08;100186.97;4965779;28;45643;-59
2021/06/14 10:56:08;;;;;;;;;8.50;5.00;;;;;26.75;32.00;100181.25;4969203;28;46382;-59
2021/06/14 10:58:35;;;;;;;;;6.50;5.25;;;;;26.83;31.74;100183.38;4970196;28;45339;-59
2021/06/14 11:01:02;;;;;;;;;8.25;7.00;;;;;26.92;31.47;100190.81;4969924;28;45540;-59
2021/06/14 11:03:41;;;;;;;;;7.50;6.50;;;;;26.98;30.74;100187.63;4966620;28;45584;-59
2021/06/14 11:06:17;;;;;;;;;7.75;6.00;;;;;27.05;31.08;100186.09;4968905;28;46326;-59
2021/06/14 11:08:44;;;;;;;;;11.25;11.00;;;;;27.17;31.28;100178.75;4968834;28;46820;-58
2021/06/14 11:11:10;;;;;;;;;44.25;34.75;;;;;27.29;31.32;100179.63;4966673;28;45851;-59
2021/06/14 11:13:48;;;;;;;;;43.25;35.50;;;;;27.42;29.99;100181.31;4968132;28;45594;-58
2021/06/14 11:16:13;;;;;;;;;48.75;38.00;;;;;27.46;30.48;100189.16;4966903;28;46330;-59
2021/06/14 11:18:39;;;;;;;;;10.25;8.50;;;;;27.73;32.38;100178.75;4967261;28;61810;-58
2021/06/14 11:21:12;;;;;;;;;7.50;7.50;;;;;31.42;30.04;100173.22;4962912;28;59682;-59
2021/06/14 11:23:39;;;;;;;;;46.25;35.50;;;;;35.84;24.10;100171.81;4966172;28;45449;-59
2021/06/14 11:26:05;;;;;;;;;45.00;38.75;;;;;39.20;20.48;100172.84;4968694;28;46698;-60
2021/06/14 11:28:36;;;;;;;;;62.50;47.75;;;;;41.05;18.48;100168.66;4968042;28;46887;-59
2021/06/14 11:31:27;;;;;;;;;51.00;39.00;;;;;42.10;17.76;100179.66;4968498;28;46110;-60